Time;durP1;ratioP1;P1;durP2;ratioP2;P2;SDS_P1;SDS_P2;PMS_P1;PMS_P2;Temp;Humidity;BMP_temperature;BMP_pressure;BME280_temperature;BME280_humidity;BME280_pressure;Samples;Min_cycle;Max_cycle;Signal;HPM_P1;HPM_P2
2022/06/28 00:01:51;;;;;;;;;;;;;;;27.87;40.53;100576.78;5076347;28;2455;-39
2022/06/28 00:04:16;;;;;;;;;;;;;;;27.85;41.24;100576.13;5076309;28;1016;-36
2022/06/28 00:06:42;;;;;;;;;;;;;;;27.82;41.71;100571.13;5074500;28;1163;-37
2022/06/28 00:09:07;;;;;;;;;;;;;;;27.84;41.44;100582.56;5084733;28;1241;-39
2022/06/28 00:11:32;;;;;;;;;;;;;;;27.86;41.10;100570.53;5077336;28;1048;-40
2022/06/28 00:13:58;;;;;;;;;;;;;;;27.83;42.04;100581.72;5082486;28;1153;-40
2022/06/28 00:16:23;;;;;;;;;;;;;;;27.83;41.71;100575.47;5062334;28;1926;-37
2022/06/28 00:18:51;;;;;;;;;;;;;;;27.81;41.58;100569.44;5079831;28;1071;-37
2022/06/28 00:21:16;;;;;;;;;;;;;;;27.86;41.66;100572.41;5083373;28;866;-39
2022/06/28 00:23:42;;;;;;;;;;;;;;;27.79;41.81;100575.06;5086864;28;1114;-38
2022/06/28 00:26:08;;;;;;;;;;;;;;;27.83;41.98;100570.06;5079827;28;1150;-40
2022/06/28 00:28:33;;;;;;;;;;;;;;;27.87;41.53;100576.78;5079249;28;1040;-40
2022/06/28 00:30:59;;;;;;;;;;;;;;;27.86;41.60;100577.81;5079600;28;2505;-39
2022/06/28 00:33:24;;;;;;;;;;;;;;;27.82;41.76;100576.53;5080675;28;1130;-39
2022/06/28 00:35:49;;;;;;;;;;;;;;;27.78;42.22;100569.84;5084345;28;1905;-40
2022/06/28 00:38:16;;;;;;;;;;;;;;;27.83;41.37;100575.47;5079565;28;989;-40
2022/06/28 00:40:44;;;;;;;;;;;;;;;27.84;41.47;100566.34;5079754;28;985;-40
2022/06/28 00:43:10;;;;;;;;;;;;;;;27.82;41.71;100565.72;5061559;28;1127;-39
2022/06/28 00:45:35;;;;;;;;;;;;;;;27.82;41.50;100571.13;5077221;28;1139;-41
2022/06/28 00:48:00;;;;;;;;;;;;;;;27.81;41.26;100578.38;5076664;28;1155;-42
2022/06/28 00:50:25;;;;;;;;;;;;;;;27.80;41.23;100568.59;5080897;28;1059;-39
2022/06/28 00:53:00;;;;;;;;;;;;;;;27.82;41.72;100563.00;5066407;28;1027;-39
2022/06/28 00:55:25;;;;;;;;;;;;;;;27.80;40.81;100565.06;5079069;28;1981;-38
2022/06/28 00:57:51;;;;;;;;;;;;;;;27.77;41.60;100566.28;5078786;28;1039;-37
2022/06/28 01:00:16;;;;;;;;;;;;;;;27.85;41.78;100576.13;5087793;28;2508;-38
2022/06/28 01:02:41;;;;;;;;;;;;;;;27.81;41.75;100578.38;5079561;28;996;-38
2022/06/28 01:05:07;;;;;;;;;;;;;;;27.82;41.27;100580.06;5078838;28;1226;-39
2022/06/28 01:07:32;;;;;;;;;;;;;;;27.80;41.78;100578.56;5069269;28;1072;-39
2022/06/28 01:09:57;;;;;;;;;;;;;;;27.84;41.50;100577.97;5060954;28;1180;-40
2022/06/28 01:12:23;;;;;;;;;;;;;;;27.82;41.59;100580.06;5081694;28;1092;-39
2022/06/28 01:14:48;;;;;;;;;;;;;;;27.79;41.70;100585.88;5072203;28;1902;-39
2022/06/28 01:17:13;;;;;;;;;;;;;;;27.81;41.98;100586.47;5078625;28;1024;-37
2022/06/28 01:19:39;;;;;;;;;;;;;;;27.83;41.62;100589.00;5078533;28;976;-38
2022/06/28 01:22:05;;;;;;;;;;;;;;;27.83;41.22;100589.84;5077361;28;816;-39
2022/06/28 01:24:30;;;;;;;;;;;;;;;27.81;41.77;100585.66;5092203;28;1138;-37
2022/06/28 01:26:55;;;;;;;;;;;;;;;27.78;41.46;100586.06;5068859;28;968;-39
2022/06/28 01:29:21;;;;;;;;;;;;;;;27.80;40.47;100594.78;5078522;28;1020;-38
2022/06/28 01:31:46;;;;;;;;;;;;;;;27.82;41.74;100593.59;5079148;28;2641;-40
2022/06/28 01:34:11;;;;;;;;;;;;;;;27.81;41.39;100602.69;5078529;28;1075;-40
2022/06/28 01:36:37;;;;;;;;;;;;;;;27.81;41.10;100602.69;5063274;28;1902;-38
2022/06/28 01:39:02;;;;;;;;;;;;;;;27.85;41.03;100605.88;5077775;28;1066;-36
2022/06/28 01:41:34;;;;;;;;;;;;;;;27.81;41.08;100594.59;5078860;28;1213;-38
2022/06/28 01:43:59;;;;;;;;;;;;;;;27.79;41.31;100599.38;5079184;28;1154;-39
2022/06/28 01:46:25;;;;;;;;;;;;;;;27.82;41.45;100600.84;5078446;28;1229;-38
2022/06/28 01:48:51;;;;;;;;;;;;;;;27.82;41.24;100595.44;5078899;28;1091;-39
2022/06/28 01:51:16;;;;;;;;;;;;;;;27.78;40.92;100596.88;5089410;28;917;-40
2022/06/28 01:53:41;;;;;;;;;;;;;;;27.79;41.21;100593.13;5078067;28;952;-40
2022/06/28 01:56:07;;;;;;;;;;;;;;;27.82;41.72;100584.63;5078328;28;1902;-39
2022/06/28 01:58:32;;;;;;;;;;;;;;;27.80;41.04;100583.97;5072705;28;953;-38
2022/06/28 02:00:57;;;;;;;;;;;;;;;27.84;40.57;100593.38;5077986;28;2522;-36
2022/06/28 02:03:23;;;;;;;;;;;;;;;27.81;41.18;100585.66;5081466;28;1099;-38
2022/06/28 02:05:48;;;;;;;;;;;;;;;27.83;41.29;100581.72;5072819;28;980;-38
2022/06/28 02:08:13;;;;;;;;;;;;;;;27.81;40.93;100589.19;5086033;28;1055;-40
2022/06/28 02:10:38;;;;;;;;;;;;;;;27.80;41.09;100582.13;5077868;28;1028;-38
2022/06/28 02:13:04;;;;;;;;;;;;;;;27.84;41.86;100590.69;5078224;28;1060;-39
2022/06/28 02:15:29;;;;;;;;;;;;;;;27.78;41.25;100581.47;5081028;28;1882;-36
2022/06/28 02:17:56;;;;;;;;;;;;;;;27.83;40.82;100586.28;5077826;28;973;-41
2022/06/28 02:20:22;;;;;;;;;;;;;;;27.81;41.29;100586.47;5077511;28;1453;-39
2022/06/28 02:22:47;;;;;;;;;;;;;;;27.84;40.75;100591.50;5089799;28;1177;-38
2022/06/28 02:25:12;;;;;;;;;;;;;;;27.78;40.80;100586.06;5078102;28;996;-39
2022/06/28 02:27:38;;;;;;;;;;;;;;;27.84;41.02;100580.69;5076971;28;1114;-40
2022/06/28 02:30:03;;;;;;;;;;;;;;;27.86;40.94;100586.75;5084280;28;2580;-36
2022/06/28 02:32:28;;;;;;;;;;;;;;;27.81;41.17;100588.38;5077427;28;976;-38
2022/06/28 02:40:21;;;;;;;;;;;;;;;27.78;40.69;100591.47;5070562;28;976;-39
2022/06/28 02:42:49;;;;;;;;;;;;;;;27.84;41.09;100598.78;5081078;28;1213;-41
2022/06/28 02:45:15;;;;;;;;;;;;;;;27.84;40.98;100596.09;5071024;28;957;-38
2022/06/28 02:47:40;;;;;;;;;;;;;;;27.79;41.45;100591.25;5089373;28;1162;-39
2022/06/28 02:50:06;;;;;;;;;;;;;;;27.81;41.10;100591.88;5076440;28;1035;-35
2022/06/28 02:52:31;;;;;;;;;;;;;;;27.80;41.47;100606.44;5076456;28;1091;-37
2022/06/28 02:54:56;;;;;;;;;;;;;;;27.80;40.95;100609.16;5075905;28;1898;-36
2022/06/28 02:57:22;;;;;;;;;;;;;;;27.80;41.50;100606.44;5076878;28;1067;-39
2022/06/28 02:59:47;;;;;;;;;;;;;;;27.75;41.12;100603.47;5076994;28;2368;-40
2022/06/28 03:02:12;;;;;;;;;;;;;;;27.80;41.37;100605.59;5080356;28;984;-40
2022/06/28 03:04:37;;;;;;;;;;;;;;;27.81;41.38;100608.09;5082966;28;1067;-39
2022/06/28 03:07:03;;;;;;;;;;;;;;;27.80;40.69;100609.16;5080582;28;952;-38
2022/06/28 03:09:28;;;;;;;;;;;;;;;27.81;40.51;100618.09;5076786;28;980;-37
2022/06/28 03:11:53;;;;;;;;;;;;;;;27.81;41.29;100624.31;5076700;28;1517;-36
2022/06/28 03:14:19;;;;;;;;;;;;;;;27.79;40.87;100621.00;5076842;28;1206;-39
2022/06/28 03:16:44;;;;;;;;;;;;;;;27.81;40.69;100623.50;5071832;28;1972;-38
2022/06/28 03:19:09;;;;;;;;;;;;;;;27.96;40.70;100626.97;5086905;28;1456;-37
2022/06/28 03:21:35;;;;;;;;;;;;;;;27.87;40.50;100628.13;5078666;28;1103;-37
2022/06/28 03:24:00;;;;;;;;;;;;;;;27.93;40.70;100631.94;5076846;28;1109;-38
2022/06/28 03:26:25;;;;;;;;;;;;;;;27.99;40.73;100634.72;5076424;28;1135;-38
2022/06/28 03:28:50;;;;;;;;;;;;;;;27.70;41.63;100625.66;5076588;28;1037;-41
2022/06/28 03:31:16;;;;;;;;;;;;;;;27.70;41.50;100641.03;5076075;28;2764;-40
2022/06/28 03:33:41;;;;;;;;;;;;;;;27.58;41.81;100656.88;5089665;28;964;-39
2022/06/28 03:36:06;;;;;;;;;;;;;;;27.71;41.23;100651.66;5076159;28;1961;-41
2022/06/28 03:38:31;;;;;;;;;;;;;;;27.63;41.37;100660.69;5076341;28;961;-41
2022/06/28 03:40:57;;;;;;;;;;;;;;;27.70;41.35;100658.09;5085270;28;1427;-40
2022/06/28 03:43:22;;;;;;;;;;;;;;;27.74;40.61;100661.28;5076424;28;1060;-40
2022/06/28 03:45:47;;;;;;;;;;;;;;;27.75;41.59;100661.06;5086239;28;1098;-40
2022/06/28 03:48:13;;;;;;;;;;;;;;;27.84;40.91;100669.06;5074914;28;1263;-39
2022/06/28 03:50:38;;;;;;;;;;;;;;;27.72;41.21;100666.88;5081746;28;1139;-42
2022/06/28 03:53:38;;;;;;;;;;;;;;;27.62;40.82;100674.38;5112739;27;1341;-30
2022/06/28 03:56:04;;;;;;;;;;;;;;;27.73;41.21;100681.19;5098677;28;833;-32
2022/06/28 03:58:29;;;;;;;;;;;;;;;27.75;40.88;100682.69;5090603;28;924;-36
2022/06/28 04:00:55;;;;;;;;;;;;;;;27.79;40.98;100685.88;5084297;28;2630;-33
2022/06/28 04:03:20;;;;;;;;;;;;;;;25.30;45.65;100675.88;5087832;28;1199;-34
2022/06/28 04:05:45;;;;;;;;;;;;;;;22.12;53.48;100676.34;5091297;28;1029;-30
2022/06/28 04:08:10;;;;;;;;;;;;;;;20.98;56.77;100676.34;5107672;28;976;-29
2022/06/28 04:10:36;;;;;;;;;;;;;;;20.55;57.90;100689.97;5098296;28;1055;-31
2022/06/28 04:13:01;;;;;;;;;;;;;;;20.23;59.28;100685.75;5096698;28;1906;-30
2022/06/28 04:15:26;;;;;;;;;;;;;;;20.06;59.50;100685.44;5094158;28;1079;-30
2022/06/28 04:17:52;;;;;;;;;;;;;;;19.90;60.33;100691.25;5093789;28;970;-30
2022/06/28 04:20:17;;;;;;;;;;;;;;;22.65;53.36;100680.22;5093350;28;1024;-34
2022/06/28 04:22:42;;;;;;;;;;;;;;;24.40;50.56;100678.44;5102583;28;1202;-34
2022/06/28 04:25:08;;;;;;;;;;;;;;;25.61;43.35;100677.78;5093142;28;1017;-33
2022/06/28 04:27:33;;;;;;;;;;;;;;;25.71;46.11;100674.91;5093410;28;953;-35
2022/06/28 04:29:59;;;;;;;;;;;;;;;21.04;56.23;100677.59;5093234;28;2454;-35
2022/06/28 04:32:25;;;;;;;;;;;;;;;20.05;59.86;100673.03;5086341;28;1909;-32
2022/06/28 04:34:50;;;;;;;;;;;;;;;21.85;56.32;100679.91;5100176;28;1024;-37
2022/06/28 04:37:15;;;;;;;;;;;;;;;24.19;45.99;100685.13;5094639;28;1091;-35
2022/06/28 04:39:41;;;;;;;;;;;;;;;22.58;50.63;100674.59;5091571;28;1301;-33
2022/06/28 04:42:06;;;;;;;;;;;;;;;23.44;49.32;100688.34;5088534;28;1286;-32
2022/06/28 04:44:31;;;;;;;;;;;;;;;24.88;44.15;100675.06;5087891;28;1255;-41
2022/06/28 04:52:56;;;;;;;;;;;;;;;21.61;53.67;100679.41;5095448;27;1446;-34
2022/06/28 04:55:22;;;;;;;;;;;;;;;23.73;48.90;100687.16;5096084;28;1009;-34
2022/06/28 04:57:47;;;;;;;;;;;;;;;23.62;47.89;100686.59;5093500;28;964;-34
2022/06/28 05:00:12;;;;;;;;;;;;;;;22.45;54.02;100694.59;5092510;28;1323;-32
2022/06/28 05:02:38;;;;;;;;;;;;;;;24.42;45.01;100690.69;5102831;28;1203;-33
2022/06/28 05:05:04;;;;;;;;;;;;;;;22.63;50.68;100691.94;5095002;28;1273;-33
2022/06/28 05:07:29;;;;;;;;;;;;;;;23.44;49.09;100699.06;5094712;28;1700;-31
2022/06/28 05:09:55;;;;;;;;;;;;;;;24.70;45.22;100703.84;5092923;28;1186;-38
2022/06/28 05:12:20;;;;;;;;;;;;;;;22.26;52.44;100698.25;5093449;28;1909;-34
2022/06/28 05:14:45;;;;;;;;;;;;;;;24.34;46.38;100694.22;5086334;28;1281;-33
2022/06/28 05:17:10;;;;;;;;;;;;;;;23.05;49.37;100694.09;5092794;28;1023;-35
2022/06/28 05:19:36;;;;;;;;;;;;;;;22.39;54.37;100709.44;5093358;28;996;-34
2022/06/28 05:22:01;;;;;;;;;;;;;;;24.55;46.18;100716.25;5092656;28;937;-36
2022/06/28 05:24:26;;;;;;;;;;;;;;;22.99;50.68;100700.94;5093110;28;972;-34
2022/06/28 05:26:52;;;;;;;;;;;;;;;22.36;55.53;100706.22;5092567;28;1021;-33
2022/06/28 05:29:17;;;;;;;;;;;;;;;24.57;45.62;100712.38;5094100;28;1003;-34
2022/06/28 05:31:42;;;;;;;;;;;;;;;22.38;51.47;100706.91;5092596;28;1905;-34
2022/06/28 05:34:08;;;;;;;;;;;;;;;24.06;46.85;100707.06;5092431;28;1019;-34
2022/06/28 05:36:33;;;;;;;;;;;;;;;23.15;48.60;100705.59;5092303;28;992;-34
2022/06/28 05:38:59;;;;;;;;;;;;;;;23.50;48.64;100713.72;5092191;28;960;-34
2022/06/28 05:41:24;;;;;;;;;;;;;;;24.58;44.69;100718.63;5096315;28;972;-35
2022/06/28 05:43:49;;;;;;;;;;;;;;;22.44;53.13;100714.34;5096308;28;1099;-36
2022/06/28 05:46:14;;;;;;;;;;;;;;;24.48;45.55;100712.53;5092653;28;1047;-35
2022/06/28 05:48:40;;;;;;;;;;;;;;;22.46;50.63;100711.50;5092968;28;953;-32
2022/06/28 05:51:05;;;;;;;;;;;;;;;23.01;47.22;100594.31;5089270;28;1956;-32
2022/06/28 05:53:30;;;;;;;;;;;;;;;23.77;46.87;100705.63;5090184;28;1000;-30
2022/06/28 05:55:56;;;;;;;;;;;;;;;22.46;53.56;100707.00;5102755;28;1274;-33
2022/06/28 05:58:21;;;;;;;;;;;;;;;24.36;45.72;100718.25;5094890;28;1249;-34
2022/06/28 06:00:47;;;;;;;;;;;;;;;22.30;50.90;100706.84;5095173;28;1345;-36
2022/06/28 06:03:12;;;;;;;;;;;;;;;23.98;46.44;100707.88;5092466;28;1044;-31
2022/06/28 06:05:38;;;;;;;;;;;;;;;23.39;47.76;100712.09;5078493;28;1410;-33
2022/06/28 06:08:03;;;;;;;;;;;;;;;22.66;53.58;100708.69;5078256;28;1024;-34
2022/06/28 06:10:28;;;;;;;;;;;;;;;24.72;45.13;100708.22;5084011;28;1151;-33
2022/06/28 06:12:53;;;;;;;;;;;;;;;22.29;51.02;100705.16;5078886;28;1909;-33
2022/06/28 06:15:20;;;;;;;;;;;;;;;23.71;48.28;100707.09;5089845;28;1091;-35
2022/06/28 06:17:46;;;;;;;;;;;;;;;23.80;46.98;100710.66;5083514;28;1249;-33
2022/06/28 06:20:11;;;;;;;;;;;;;;;22.41;53.24;100705.75;5080069;28;1415;-33
2022/06/28 06:22:36;;;;;;;;;;;;;;;24.31;46.30;100708.00;5077286;28;1032;-34
2022/06/28 06:25:02;;;;;;;;;;;;;;;22.75;50.20;100707.81;5086660;28;1250;-35
2022/06/28 06:27:27;;;;;;;;;;;;;;;22.97;51.65;100709.13;5078394;28;1009;-34
2022/06/28 06:29:52;;;;;;;;;;;;;;;24.52;43.53;100708.53;5078734;28;1155;-32
2022/06/28 06:32:18;;;;;;;;;;;;;;;22.08;50.76;100709.78;5077986;28;1906;-34
2022/06/28 06:34:43;;;;;;;;;;;;;;;23.97;46.55;100706.19;5078734;28;1151;-31
2022/06/28 06:37:08;;;;;;;;;;;;;;;23.07;48.20;100708.22;5077614;28;1037;-34
2022/06/28 06:39:34;;;;;;;;;;;;;;;22.86;51.98;100712.06;5091366;28;1221;-36
2022/06/28 06:41:59;;;;;;;;;;;;;;;24.84;44.56;100709.53;5078847;28;1352;-35
2022/06/28 06:44:25;;;;;;;;;;;;;;;22.18;51.30;100715.09;5078295;28;1233;-35
2022/06/28 06:46:50;;;;;;;;;;;;;;;23.88;47.31;100713.38;5077737;28;1131;-33
2022/06/28 06:49:17;;;;;;;;;;;;;;;23.61;47.72;100723.31;5078774;28;1182;-31
2022/06/28 06:51:44;;;;;;;;;;;;;;;22.26;53.60;100711.66;5076444;28;1965;-32
2022/06/28 06:54:10;;;;;;;;;;;;;;;24.22;46.33;100719.75;5077708;28;1150;-30
2022/06/28 06:56:35;;;;;;;;;;;;;;;22.63;50.70;100723.28;5077973;28;891;-32
2022/06/28 06:59:01;;;;;;;;;;;;;;;22.46;55.09;100727.59;5077867;28;1212;-32
2022/06/28 07:01:29;;;;;;;;;;;;;;;24.54;45.71;100731.56;5077358;28;1130;-33
2022/06/28 07:03:54;;;;;;;;;;;;;;;22.29;51.90;100722.06;5077918;28;1233;-32
2022/06/28 07:06:19;;;;;;;;;;;;;;;22.87;52.53;100730.69;5078065;28;986;-32
2022/06/28 07:08:45;;;;;;;;;;;;;;;24.77;45.69;100724.69;5076992;28;1226;-31
2022/06/28 07:11:10;;;;;;;;;;;;;;;22.22;52.60;100726.34;5077819;28;1918;-35
2022/06/28 07:13:36;;;;;;;;;;;;;;;22.70;53.63;100735.09;5077528;28;1178;-38
2022/06/28 07:16:01;;;;;;;;;;;;;;;24.65;46.76;100727.72;5076586;28;1309;-34
2022/06/28 07:18:26;;;;;;;;;;;;;;;22.24;52.88;100725.19;5077349;28;1171;-31
2022/06/28 07:20:54;;;;;;;;;;;;;;;22.21;56.61;100730.88;5077193;28;1111;-31
2022/06/28 07:23:19;;;;;;;;;;;;;;;24.49;46.67;100733.06;5077337;28;1138;-32
2022/06/28 07:25:44;;;;;;;;;;;;;;;22.44;51.81;100729.59;5077412;28;1230;-33
2022/06/28 07:28:10;;;;;;;;;;;;;;;22.43;56.03;100727.91;5077368;28;1308;-34
2022/06/28 07:30:36;;;;;;;;;;;;;;;24.70;46.41;100721.81;5086634;28;1894;-33
2022/06/28 07:33:01;;;;;;;;;;;;;;;22.33;52.40;100725.28;5076829;28;1233;-35
2022/06/28 07:35:26;;;;;;;;;;;;;;;21.86;55.92;100730.63;5082458;28;1166;-30
2022/06/28 07:37:52;;;;;;;;;;;;;;;24.21;48.34;100729.66;5076804;28;1052;-33
2022/06/28 07:40:17;;;;;;;;;;;;;;;22.85;51.25;100721.97;5077362;28;1170;-31
2022/06/28 07:42:42;;;;;;;;;;;;;;;21.67;55.05;100717.28;5077052;28;1178;-33
2022/06/28 07:45:08;;;;;;;;;;;;;;;23.79;49.81;100725.94;5075742;28;1166;-34
2022/06/28 07:47:33;;;;;;;;;;;;;;;23.58;49.31;100720.97;5078545;28;1219;-33
2022/06/28 07:52:42;;;;;;;;;;;;;;;24.45;47.58;100727.19;5076298;28;1957;-31
2022/06/28 07:55:08;;;;;;;;;;;;;;;22.69;51.96;100719.16;5076663;28;1182;-33
2022/06/28 07:57:34;;;;;;;;;;;;;;;21.61;55.22;100722.22;5086189;28;1186;-33
2022/06/28 07:59:59;;;;;;;;;;;;;;;23.63;50.20;100715.09;5081390;28;1178;-36
2022/06/28 08:02:24;;;;;;;;;;;;;;;23.59;49.45;100714.59;5076693;28;1123;-32
2022/06/28 08:04:50;;;;;;;;;;;;;;;21.87;54.47;100710.88;5076674;28;1127;-31
2022/06/28 08:07:15;;;;;;;;;;;;;;;22.98;51.89;100710.84;5076296;28;1182;-33
2022/06/28 08:09:40;;;;;;;;;;;;;;;24.65;47.57;100724.16;5076446;28;1150;-30
2022/06/28 08:12:06;;;;;;;;;;;;;;;22.16;53.59;100708.19;5074993;28;1976;-32
2022/06/28 08:14:31;;;;;;;;;;;;;;;22.25;56.73;100720.69;5087560;28;1032;-32
2022/06/28 08:16:57;;;;;;;;;;;;;;;24.36;48.38;100720.13;5087446;28;1254;-34
2022/06/28 08:19:22;;;;;;;;;;;;;;;22.57;52.30;100711.28;5094635;28;1084;-30
2022/06/28 08:21:49;;;;;;;;;;;;;;;21.54;55.65;100705.06;5094453;28;1245;-34
2022/06/28 08:24:14;;;;;;;;;;;;;;;23.38;51.15;100705.06;5085705;28;1376;-34
2022/06/28 08:26:42;;;;;;;;;;;;;;;23.86;48.86;100701.94;5076291;28;1154;-34
2022/06/28 08:29:16;;;;;;;;;;;;;;;21.94;54.34;100696.91;5079652;28;1521;-33
2022/06/28 08:31:42;;;;;;;;;;;;;;;22.27;56.76;100695.41;5089661;28;1905;-33
2022/06/28 08:34:07;;;;;;;;;;;;;;;24.55;47.32;100697.44;5128591;27;1261;-35
2022/06/28 08:36:33;;;;;;;;;;;;;;;22.28;51.92;100685.56;5078248;28;1069;-33
2022/06/28 08:38:58;;;;;;;;;;;;;;;23.33;50.04;100684.06;5075740;28;921;-33
2022/06/28 08:41:24;;;;;;;;;;;;;;;24.27;47.29;100685.16;5076394;28;1395;-32
2022/06/28 08:43:50;;;;;;;;;;;;;;;21.99;53.09;100681.22;5108863;28;1181;-32
2022/06/28 08:46:15;;;;;;;;;;;;;;;23.12;50.19;100684.44;5075199;28;1139;-30
2022/06/28 08:48:41;;;;;;;;;;;;;;;24.38;46.55;100683.13;5076126;28;1135;-31
2022/06/28 08:51:07;;;;;;;;;;;;;;;22.00;52.72;100677.56;5075202;28;1956;-33
2022/06/28 08:53:32;;;;;;;;;;;;;;;22.61;53.93;100677.84;5057491;28;2400;-35
2022/06/28 08:55:58;;;;;;;;;;;;;;;24.62;46.22;100676.94;5072280;28;2105;-33
2022/06/28 08:58:23;;;;;;;;;;;;;;;22.32;52.01;100675.38;5064366;28;2097;-33
2022/06/28 09:00:48;;;;;;;;;;;;;;;22.18;55.66;100672.22;5062921;28;1966;-33
2022/06/28 09:03:15;;;;;;;;;;;;;;;24.30;46.82;100676.75;5055955;28;2155;-37
2022/06/28 09:05:40;;;;;;;;;;;;;;;22.52;50.55;100668.03;5060780;28;1962;-32
2022/06/28 09:08:05;;;;;;;;;;;;;;;22.91;52.80;100653.44;5062190;28;1936;-31
2022/06/28 09:10:31;;;;;;;;;;;;;;;24.68;45.56;100662.81;5068273;28;2263;-33
2022/06/28 09:13:05;;;;;;;;;;;;;;;22.23;52.40;100656.53;5056458;28;1961;-31
2022/06/28 09:15:43;;;;;;;;;;;;;;;21.83;55.64;100661.31;5057961;28;1130;-33
2022/06/28 09:18:08;;;;;;;;;;;;;;;24.14;47.56;100655.19;5055999;28;1245;-31
2022/06/28 09:20:37;;;;;;;;;;;;;;;22.62;51.12;100662.63;5055023;28;964;-33
2022/06/28 09:23:02;;;;;;;;;;;;;;;21.64;54.34;100656.84;5055403;28;1095;-30
2022/06/28 09:25:28;;;;;;;;;;;;;;;23.90;48.74;100664.88;5055700;28;985;-33
2022/06/28 09:27:54;;;;;;;;;;;;;;;23.20;49.30;100660.34;5058680;28;976;-35
2022/06/28 09:30:21;;;;;;;;;;;;;;;21.74;53.54;100648.75;5060284;28;1071;-32
2022/06/28 09:32:46;;;;;;;;;;;;;;;24.15;46.74;100646.09;5055459;28;1955;-35
2022/06/28 09:35:11;;;;;;;;;;;;;;;23.17;49.41;100647.22;5055416;28;1221;-31
2022/06/28 09:37:42;;;;;;;;;;;;;;;21.72;54.11;100640.06;5059143;28;1009;-38
2022/06/28 09:40:08;;;;;;;;;;;;;;;22.04;56.37;100649.47;5059263;28;1024;-35
2022/06/28 09:42:34;;;;;;;;;;;;;;;24.45;46.64;100644.69;5064897;28;999;-36
2022/06/28 09:44:59;;;;;;;;;;;;;;;22.54;51.30;100638.38;5079595;28;1371;-33
2022/06/28 09:47:24;;;;;;;;;;;;;;;21.59;54.43;100632.34;5057456;28;1092;-33
2022/06/28 09:49:50;;;;;;;;;;;;;;;23.62;49.35;100643.63;5058816;28;1056;-32
2022/06/28 09:52:15;;;;;;;;;;;;;;;23.57;47.98;100646.78;5072958;28;1947;-31
2022/06/28 09:54:40;;;;;;;;;;;;;;;22.21;54.15;100642.44;5077408;28;884;-33
2022/06/28 09:57:06;;;;;;;;;;;;;;;24.16;47.15;100648.66;5078386;28;1179;-33
2022/06/28 09:59:31;;;;;;;;;;;;;;;21.99;50.23;100523.19;5078799;28;969;-33
2022/06/28 10:01:56;;;;;;;;;;;;;;;21.61;53.78;100633.03;5078434;28;1167;-33
2022/06/28 10:04:22;;;;;;;;;;;;;;;23.16;49.82;100632.13;5083493;28;1221;-32
2022/06/28 10:06:48;;;;;;;;;;;;;;;23.97;46.52;100628.28;5078370;28;1057;-31
2022/06/28 10:09:13;;;;;;;;;;;;;;;21.89;52.29;100625.03;5078424;28;1174;-32
2022/06/28 10:17:33;;;;;;;;;;;;;;;21.57;52.84;100616.44;5077449;28;1028;-34
2022/06/28 10:19:58;;;;;;;;;;;;;;;23.82;47.21;100620.84;5059377;28;1134;-33
2022/06/28 10:22:24;;;;;;;;;;;;;;;22.80;49.23;100613.47;5076983;28;982;-32
2022/06/28 10:24:49;;;;;;;;;;;;;;;21.72;53.62;100608.75;5078566;28;992;-37
2022/06/28 10:27:14;;;;;;;;;;;;;;;23.88;46.89;100611.28;5078605;28;992;-34
2022/06/28 10:29:58;;;;;;;;;;;;;;;22.71;49.36;100607.19;5083126;28;1016;-37
2022/06/28 10:32:43;;;;;;;;;;;;;;;21.84;54.25;100605.88;5073221;28;1898;-31
2022/06/28 10:35:08;;;;;;;;;;;;;;;24.13;46.03;100597.91;5075922;28;977;-35
2022/06/28 10:37:34;;;;;;;;;;;;;;;22.06;50.35;100593.91;5078006;28;1044;-34
2022/06/28 10:40:19;;;;;;;;;;;;;;;23.16;48.49;100601.75;5077921;28;1336;-32
2022/06/28 10:42:47;;;;;;;;;;;;;;;23.40;47.45;100590.34;5078012;28;1016;-31
2022/06/28 10:45:13;;;;;;;;;;;;;;;21.45;53.21;100594.41;5077539;28;901;-31
2022/06/28 10:47:38;;;;;;;;;;;;;;;23.36;48.36;100595.16;5077852;28;1103;-32
2022/06/28 10:50:06;;;;;;;;;;;;;;;23.48;47.35;100589.53;5075980;28;1465;-31
2022/06/28 10:52:32;;;;;;;;;;;;;;;22.37;53.38;100585.47;5077397;28;1980;-33
2022/06/28 10:54:58;;;;;;;;;;;;;;;24.33;45.08;100576.09;5077985;28;1425;-36
2022/06/28 10:57:26;;;;;;;;;;;;;;;22.50;49.85;100581.56;5077146;28;968;-34
2022/06/28 10:59:53;;;;;;;;;;;;;;;22.06;53.75;100572.47;5077693;28;1028;-33
2022/06/28 11:02:18;;;;;;;;;;;;;;;24.17;45.59;100577.78;5077814;28;999;-35
2022/06/28 11:04:43;;;;;;;;;;;;;;;22.48;49.11;100576.34;5080823;28;981;-35
2022/06/28 11:07:22;;;;;;;;;;;;;;;22.71;52.67;100575.88;5078030;28;1003;-34
2022/06/28 11:09:59;;;;;;;;;;;;;;;24.60;44.69;100568.69;5086666;28;1142;-31
2022/06/28 11:12:27;;;;;;;;;;;;;;;22.87;48.47;100569.75;5089721;28;1917;-31
2022/06/28 11:14:57;;;;;;;;;;;;;;;22.51;52.99;100561.78;5086162;28;1250;-32
2022/06/28 11:17:25;;;;;;;;;;;;;;;24.29;45.29;100580.97;5078597;28;1099;-33
2022/06/28 11:19:52;;;;;;;;;;;;;;;23.05;47.82;100578.75;5076679;28;992;-30
2022/06/28 11:22:18;;;;;;;;;;;;;;;22.71;51.81;100583.06;5076468;28;937;-30
2022/06/28 11:24:44;;;;;;;;;;;;;;;24.46;44.63;100583.66;5077529;28;827;-34
2022/06/28 11:27:22;;;;;;;;;;;;;;;23.03;47.71;100576.22;5076485;28;984;-33
2022/06/28 11:29:54;;;;;;;;;;;;;;;23.29;48.08;100587.94;5072501;28;940;-31
2022/06/28 11:32:27;;;;;;;;;;;;;;;24.50;45.11;100581.47;5076464;28;1905;-33
2022/06/28 11:35:02;;;;;;;;;;;;;;;22.68;48.94;100578.88;5076740;28;1039;-31
2022/06/28 11:37:28;;;;;;;;;;;;;;;22.62;52.66;100574.97;5076691;28;972;-31
2022/06/28 11:39:54;;;;;;;;;;;;;;;24.24;45.02;100580.63;5079115;28;969;-32
2022/06/28 11:42:20;;;;;;;;;;;;;;;22.80;48.62;100581.28;5076695;28;1056;-30
2022/06/28 11:44:45;;;;;;;;;;;;;;;22.11;50.60;100570.19;5077432;28;1154;-34
2022/06/28 11:47:11;;;;;;;;;;;;;;;23.65;46.51;100579.69;5075496;28;1096;-31
2022/06/28 11:49:36;;;;;;;;;;;;;;;23.40;47.04;100573.41;5076227;28;965;-35
2022/06/28 11:52:01;;;;;;;;;;;;;;;22.95;50.41;100573.50;5098785;28;1902;-31
2022/06/28 11:54:27;;;;;;;;;;;;;;;24.38;45.14;100564.84;5076792;28;1063;-32
2022/06/28 11:56:53;;;;;;;;;;;;;;;22.80;48.63;100559.84;5076093;28;964;-30
2022/06/28 11:59:19;;;;;;;;;;;;;;;23.39;47.90;100569.81;5076638;28;1047;-32
2022/06/28 12:01:44;;;;;;;;;;;;;;;24.14;45.81;100567.31;5075356;28;1218;-33
2022/06/28 12:04:10;;;;;;;;;;;;;;;22.39;50.08;100579.94;5078902;28;1028;-32
2022/06/28 12:06:36;;;;;;;;;;;;;;;23.78;46.59;100598.00;5075997;28;899;-33
2022/06/28 12:09:02;;;;;;;;;;;;;;;23.40;47.46;100625.25;5075952;28;1131;-31
2022/06/28 12:11:40;;;;;;;;;;;;;;;22.93;50.99;100654.13;5075876;28;1971;-31
2022/06/28 12:14:06;;;;;;;;;;;;;;;24.24;45.08;100677.38;5075766;28;1154;-32
2022/06/28 12:16:32;;;;;;;;;;;;;;;23.06;50.31;100698.47;5075535;28;1215;-36
2022/06/28 12:18:57;;;;;;;;;;;;;;;24.23;45.35;100717.88;5076093;28;980;-33
2022/06/28 12:21:23;;;;;;;;;;;;;;;22.86;51.34;100763.03;5075927;28;1199;-31
2022/06/28 12:23:49;;;;;;;;;;;;;;;23.70;49.62;100729.59;5076248;28;1044;-32
2022/06/28 12:26:14;;;;;;;;;;;;;;;24.65;49.39;100743.84;5075825;28;1389;-33
2022/06/28 12:28:39;;;;;;;;;;;;;;;23.05;50.15;100724.47;5076015;28;1059;-35
2022/06/28 12:31:04;;;;;;;;;;;;;;;23.51;50.34;100718.06;5076018;28;1898;-34
2022/06/28 12:33:30;;;;;;;;;;;;;;;24.16;52.45;100714.97;5075982;28;984;-35
2022/06/28 12:35:55;;;;;;;;;;;;;;;23.16;49.68;100696.53;5075647;28;1071;-33
2022/06/28 12:38:20;;;;;;;;;;;;;;;23.42;50.67;100690.34;5074853;28;1242;-33
2022/06/28 12:40:46;;;;;;;;;;;;;;;24.17;52.01;100682.59;5075808;28;901;-34
2022/06/28 12:43:11;;;;;;;;;;;;;;;23.77;48.96;100678.75;5076356;28;973;-36
2022/06/28 12:45:36;;;;;;;;;;;;;;;23.13;53.47;100680.75;5075746;28;1016;-31
2022/06/28 12:48:02;;;;;;;;;;;;;;;24.12;47.25;100678.69;5076292;28;984;-33
2022/06/28 12:50:27;;;;;;;;;;;;;;;24.38;46.55;100677.75;5075611;28;1020;-35
2022/06/28 12:52:52;;;;;;;;;;;;;;;24.70;50.38;100674.25;5074853;28;1961;-33
2022/06/28 12:55:17;;;;;;;;;;;;;;;22.95;51.61;100665.56;5075869;28;1197;-38
2022/06/28 12:57:44;;;;;;;;;;;;;;;23.68;48.92;100672.50;5075819;28;1000;-36
2022/06/28 13:00:10;;;;;;;;;;;;;;;23.97;53.00;100679.34;5074869;28;1178;-36
2022/06/28 13:02:35;;;;;;;;;;;;;;;22.76;52.14;100663.88;5082417;28;1845;-33